Time;durP1;ratioP1;P1;durP2;ratioP2;P2;SDS_P1;SDS_P2;PMS_P1;PMS_P2;Temp;Humidity;BMP_temperature;BMP_pressure;BME280_temperature;BME280_humidity;BME280_pressure;Samples;Min_cycle;Max_cycle;Signal;HPM_P1;HPM_P2
2023/06/28 00:00:48;;;;;;;81.07;74.07;;;;;;;18.73;100.00;100570.31;5063526;28;20049;-84
2023/06/28 00:03:15;;;;;;;77.70;70.70;;;;;;;18.48;100.00;100567.47;5054101;28;20081;-84
2023/06/28 00:05:43;;;;;;;100.13;91.03;;;;;;;18.75;100.00;100580.78;5057210;28;20052;-84
2023/06/28 00:08:10;;;;;;;98.65;90.07;;;;;;;18.52;100.00;100569.38;5061557;28;20530;-84
2023/06/28 00:10:37;;;;;;;97.13;88.57;;;;;;;18.12;100.00;100569.16;5061765;28;20052;-84
2023/06/28 00:13:04;;;;;;;100.72;92.32;;;;;;;18.56;100.00;100566.97;5060981;28;20055;-84
2023/06/28 00:15:30;;;;;;;78.47;71.20;;;;;;;18.60;100.00;100565.38;5065299;28;20485;-84
2023/06/28 00:17:57;;;;;;;97.65;89.70;;;;;;;18.56;100.00;100566.97;5058832;28;20049;-84
2023/06/28 00:20:24;;;;;;;87.25;79.97;;;;;;;18.23;100.00;100562.78;5062817;28;20051;-84
2023/06/28 00:22:53;;;;;;;78.32;71.30;;;;;;;18.41;100.00;100562.34;5060877;28;20049;-84
2023/06/28 00:25:20;;;;;;;72.78;66.13;;;;;;;18.52;100.00;100565.91;5060429;28;20123;-84
2023/06/28 00:27:46;;;;;;;76.38;69.38;;;;;;;18.27;100.00;100563.88;5066164;28;20048;-84
2023/06/28 00:30:14;;;;;;;70.47;63.88;;;;;;;18.43;100.00;100562.09;5057995;28;20106;-84
2023/06/28 00:32:41;;;;;;;73.32;66.72;;;;;;;18.36;100.00;100562.31;5064892;28;20067;-83
2023/06/28 00:35:08;;;;;;;80.57;73.47;;;;;;;18.52;100.00;100571.28;5060882;28;20517;-84
2023/06/28 00:37:35;;;;;;;69.70;63.08;;;;;;;18.66;100.00;100568.91;5058211;28;20052;-84
2023/06/28 00:40:05;;;;;;;66.97;60.75;;;;;;;18.62;100.00;100568.63;5061367;28;20048;-84
2023/06/28 00:42:32;;;;;;;71.45;64.90;;;;;;;18.51;100.00;100566.94;5060834;28;20064;-84
2023/06/28 00:44:59;;;;;;;68.88;62.47;;;;;;;18.48;100.00;100570.16;5060588;28;20510;-84
2023/06/28 00:47:27;;;;;;;70.10;63.53;;;;;;;18.21;100.00;100563.03;5058963;28;20049;-84
2023/06/28 00:49:55;;;;;;;68.20;61.70;;;;;;;18.24;100.00;100573.25;5059045;28;20127;-84
2023/06/28 00:52:22;;;;;;;68.47;61.90;;;;;;;18.18;100.00;100565.44;5060513;28;20132;-84
2023/06/28 00:54:50;;;;;;;71.68;64.28;;;;;;;18.25;100.00;100563.34;5054407;28;20445;-84
2023/06/28 00:57:19;;;;;;;64.25;57.92;;;;;;;18.43;100.00;100568.28;5066021;28;20052;-84
2023/06/28 00:59:46;;;;;;;69.53;62.38;;;;;;;18.29;100.00;100575.19;5062013;28;20098;-84
2023/06/28 01:02:13;;;;;;;63.30;57.20;;;;;;;18.70;100.00;100578.88;5062121;28;20036;-84
2023/06/28 01:04:41;;;;;;;69.28;62.47;;;;;;;18.16;100.00;100576.44;5051501;28;20049;-84
2023/06/28 01:07:08;;;;;;;68.95;62.28;;;;;;;18.43;100.00;100572.84;5059512;28;20044;-79
2023/06/28 01:09:36;;;;;;;71.35;64.68;;;;;;;18.46;100.00;100575.81;5061631;28;20057;-79
2023/06/28 01:12:04;;;;;;;64.22;57.95;;;;;;;18.29;100.00;100572.50;5062422;28;20056;-80
2023/06/28 01:14:32;;;;;;;62.80;56.47;;;;;;;18.45;100.00;100566.09;5055961;28;20434;-79
2023/06/28 01:16:59;;;;;;;63.25;56.90;;;;;;;18.26;100.00;100567.63;5064364;28;20044;-79
2023/06/28 01:19:27;;;;;;;68.88;62.22;;;;;;;18.25;100.00;100566.03;5056757;28;20429;-79
2023/06/28 01:21:58;;;;;;;76.50;69.40;;;;;;;18.36;100.00;100575.75;5060645;28;20048;-80
2023/06/28 01:24:27;;;;;;;74.80;67.63;;;;;;;18.16;100.00;100572.97;5063480;28;20422;-79
2023/06/28 01:26:58;;;;;;;66.82;60.45;;;;;;;18.37;100.00;100569.31;5057696;28;20052;-79
2023/06/28 01:29:26;;;;;;;66.97;60.25;;;;;;;18.38;100.00;100570.13;5059791;28;20052;-79
2023/06/28 01:31:54;;;;;;;72.93;66.30;;;;;;;18.19;100.00;100567.06;5049533;28;20059;-79
2023/06/28 01:34:22;;;;;;;85.78;78.78;;;;;;;18.39;100.00;100574.41;5049798;28;20060;-79
2023/06/28 01:36:51;;;;;;;71.25;64.55;;;;;;;17.57;100.00;100568.47;5049605;28;20078;-79
2023/06/28 01:39:19;;;;;;;77.63;70.18;;;;;;;18.10;100.00;100577.50;5050083;28;20049;-79
2023/06/28 01:41:48;;;;;;;70.55;64.03;;;;;;;17.74;100.00;100576.41;5058579;28;20044;-79
2023/06/28 01:44:15;;;;;;;78.38;71.32;;;;;;;17.65;100.00;100583.31;5049835;28;20052;-79
2023/06/28 01:46:43;;;;;;;67.97;61.58;;;;;;;18.06;100.00;100573.69;5049473;28;20049;-79
2023/06/28 01:49:11;;;;;;;68.43;61.72;;;;;;;18.07;100.00;100581.50;5049552;28;20174;-79
2023/06/28 01:51:39;;;;;;;71.85;65.35;;;;;;;18.21;100.00;100579.16;5054023;28;20107;-84
2023/06/28 01:54:06;;;;;;;65.90;59.72;;;;;;;18.21;100.00;100570.28;5061988;28;20053;-84
2023/06/28 01:56:33;;;;;;;69.40;62.85;;;;;;;18.03;100.00;100575.03;5055435;28;20506;-84
2023/06/28 01:59:01;;;;;;;75.88;68.90;;;;;;;18.14;100.00;100575.91;5061354;28;20525;-84
2023/06/28 02:01:28;;;;;;;75.82;68.97;;;;;;;17.89;100.00;100581.09;5061963;28;20437;-84
2023/06/28 02:03:55;;;;;;;86.68;79.43;;;;;;;18.12;100.00;100587.97;5055453;28;20052;-84
2023/06/28 02:06:22;;;;;;;86.97;79.45;;;;;;;17.68;100.00;100586.28;5063929;28;20083;-84
2023/06/28 02:08:49;;;;;;;93.20;85.10;;;;;;;18.20;100.00;100590.19;5059302;28;20063;-84
2023/06/28 02:11:16;;;;;;;86.32;78.50;;;;;;;17.55;100.00;100592.06;5058802;28;20057;-83
2023/06/28 02:13:43;;;;;;;81.75;74.65;;;;;;;17.64;100.00;100590.56;5059017;28;20049;-83
2023/06/28 02:16:11;;;;;;;82.43;75.00;;;;;;;17.92;100.00;100594.03;5062277;28;20040;-84
2023/06/28 02:18:38;;;;;;;77.45;70.65;;;;;;;18.11;100.00;100597.09;5056915;28;20064;-84
2023/06/28 02:21:05;;;;;;;79.47;72.63;;;;;;;18.02;100.00;100591.41;5060970;28;20570;-83
2023/06/28 02:23:32;;;;;;;78.25;71.25;;;;;;;17.74;100.00;100593.31;5058898;28;20045;-84
2023/06/28 02:25:59;;;;;;;79.80;72.60;;;;;;;17.80;100.00;100588.84;5058937;28;20044;-83
2023/06/28 02:28:26;;;;;;;74.10;67.22;;;;;;;17.62;100.00;100595.38;5053425;28;20056;-84
2023/06/28 02:30:52;;;;;;;70.20;63.40;;;;;;;18.01;100.00;100595.97;5062112;28;20056;-84
2023/06/28 02:33:21;;;;;;;71.60;65.03;;;;;;;17.81;100.00;100593.94;5060791;28;20136;-83
2023/06/28 02:35:47;;;;;;;66.05;59.75;;;;;;;17.86;100.00;100595.88;5062247;28;20053;-83
2023/06/28 02:38:15;;;;;;;62.17;56.25;;;;;;;17.98;100.00;100596.50;5066638;28;20058;-84
2023/06/28 02:40:41;;;;;;;67.28;60.88;;;;;;;17.51;100.00;100602.50;5067098;28;20058;-83
2023/06/28 02:43:08;;;;;;;63.33;57.33;;;;;;;17.83;100.00;100601.75;5062869;28;20099;-84
2023/06/28 02:45:35;;;;;;;61.60;55.80;;;;;;;17.90;100.00;100598.84;5062742;28;20084;-83
2023/06/28 02:48:02;;;;;;;63.13;56.97;;;;;;;17.60;100.00;100605.53;5064165;28;20551;-83
2023/06/28 02:50:31;;;;;;;64.97;58.88;;;;;;;17.63;100.00;100600.47;5065275;28;20545;-83
2023/06/28 02:52:58;;;;;;;66.50;60.30;;;;;;;17.61;100.00;100605.31;5062533;28;20142;-83
2023/06/28 02:55:24;;;;;;;74.32;66.75;;;;;;;18.02;100.00;100604.84;5063497;28;20076;-83
2023/06/28 02:57:52;;;;;;;67.35;61.38;;;;;;;17.73;100.00;100609.66;5059027;28;20429;-83
2023/06/28 03:00:20;;;;;;;62.83;57.05;;;;;;;17.81;100.00;100598.50;5063357;28;20048;-83
2023/06/28 03:02:47;;;;;;;61.88;56.47;;;;;;;17.96;100.00;100600.50;5060246;28;20052;-83
2023/06/28 03:05:13;;;;;;;67.07;60.92;;;;;;;17.69;100.00;100608.56;5059628;28;20075;-84
2023/06/28 03:07:42;;;;;;;64.72;58.92;;;;;;;18.09;100.00;100605.41;5062928;28;20430;-84
2023/06/28 03:10:09;;;;;;;69.85;63.58;;;;;;;18.17;100.00;100609.50;5062351;28;20445;-83
2023/06/28 03:12:36;;;;;;;65.38;59.70;;;;;;;18.22;100.00;100599.59;5062689;28;20049;-83
2023/06/28 03:15:03;;;;;;;70.03;63.30;;;;;;;17.94;100.00;100610.69;5064583;28;20048;-83
2023/06/28 03:17:30;;;;;;;60.63;55.13;;;;;;;18.08;100.00;100603.81;5061365;28;20065;-79
2023/06/28 03:19:57;;;;;;;61.88;56.17;;;;;;;18.10;100.00;100607.06;5060272;28;20048;-79
2023/06/28 03:22:24;;;;;;;67.82;61.67;;;;;;;18.15;100.00;100614.31;5066213;28;20063;-79
2023/06/28 03:24:52;;;;;;;64.00;58.20;;;;;;;18.54;100.00;100609.44;5061826;28;20516;-79
2023/06/28 03:27:19;;;;;;;66.95;61.15;;;;;;;18.10;100.00;100617.81;5059777;28;20049;-79
2023/06/28 03:29:46;;;;;;;64.80;59.10;;;;;;;18.49;100.00;100625.56;5061196;28;20194;-79
2023/06/28 03:32:13;;;;;;;70.88;64.78;;;;;;;18.72;100.00;100618.94;5059789;28;20045;-79
2023/06/28 03:34:40;;;;;;;57.17;52.20;;;;;;;18.90;100.00;100610.44;5064409;28;20055;-79
2023/06/28 03:37:09;;;;;;;62.33;56.78;;;;;;;18.72;100.00;100602.81;5059732;28;20434;-79
2023/06/28 03:39:35;;;;;;;60.33;54.92;;;;;;;19.02;100.00;100604.03;5061019;28;20434;-79
2023/06/28 03:42:05;;;;;;;65.03;59.22;;;;;;;18.92;100.00;100607.50;5061938;28;20045;-79
2023/06/28 03:44:31;;;;;;;63.70;57.78;;;;;;;19.18;100.00;100609.22;5062856;28;20052;-83
2023/06/28 03:46:58;;;;;;;59.72;54.13;;;;;;;19.42;100.00;100616.75;5062965;28;20045;-79
2023/06/28 03:49:25;;;;;;;58.78;53.58;;;;;;;19.51;100.00;100617.84;5059692;28;20049;-79
2023/06/28 03:51:52;;;;;;;59.95;54.13;;;;;;;19.97;100.00;100620.63;5058069;28;20049;-79
2023/06/28 03:54:19;;;;;;;58.53;53.30;;;;;;;20.19;100.00;100614.13;5056388;28;20510;-79
2023/06/28 03:56:46;;;;;;;51.50;47.13;;;;;;;20.18;100.00;100609.78;5066105;28;20049;-79
2023/06/28 03:59:14;;;;;;;51.55;46.95;;;;;;;20.25;100.00;100605.75;5060598;28;20040;-79
2023/06/28 04:01:41;;;;;;;51.47;47.08;;;;;;;20.43;100.00;100596.25;5062398;28;20143;-79
2023/06/28 04:04:08;;;;;;;52.70;48.30;;;;;;;20.36;100.00;100610.03;5062871;28;20048;-79
2023/06/28 04:06:35;;;;;;;56.88;52.08;;;;;;;20.33;100.00;100613.28;5062951;28;20067;-79
2023/06/28 04:09:02;;;;;;;55.35;50.80;;;;;;;20.72;100.00;100617.22;5056547;28;20053;-79
2023/06/28 04:11:29;;;;;;;54.95;50.55;;;;;;;20.79;100.00;100620.44;5064217;28;20185;-79
2023/06/28 04:13:56;;;;;;;51.88;47.33;;;;;;;20.92;100.00;100614.44;5059179;28;20511;-79
2023/06/28 04:16:24;;;;;;;44.80;41.00;;;;;;;21.00;100.00;100608.47;5061919;28;20045;-79
2023/06/28 04:18:52;;;;;;;42.00;38.35;;;;;;;20.91;100.00;100607.44;5061152;28;20052;-79
2023/06/28 04:21:19;;;;;;;43.58;39.88;;;;;;;21.06;100.00;100609.25;5058206;28;20049;-79
2023/06/28 04:23:46;;;;;;;44.83;40.83;;;;;;;21.08;100.00;100614.38;5058103;28;20523;-79
2023/06/28 04:26:13;;;;;;;45.28;41.53;;;;;;;21.31;100.00;100615.59;5057837;28;20052;-80
2023/06/28 04:28:40;;;;;;;44.22;40.53;;;;;;;21.41;100.00;100624.47;5060690;28;20124;-79
2023/06/28 04:31:07;;;;;;;47.00;42.88;;;;;;;21.57;100.00;100622.44;5061662;28;20041;-79
2023/06/28 04:33:36;;;;;;;46.92;43.15;;;;;;;22.06;100.00;100637.75;5062025;28;20325;-79
2023/06/28 04:36:04;;;;;;;42.63;39.13;;;;;;;22.17;100.00;100628.47;5058062;28;20048;-80
2023/06/28 04:38:32;;;;;;;39.80;36.40;;;;;;;21.88;100.00;100623.03;5064513;28;20049;-80
2023/06/28 04:40:59;;;;;;;43.55;39.95;;;;;;;21.79;100.00;100621.22;5056197;28;20049;-80
2023/06/28 04:43:26;;;;;;;43.20;39.22;;;;;;;21.61;100.00;100622.72;5060320;28;20052;-79
2023/06/28 04:45:55;;;;;;;39.45;35.95;;;;;;;22.17;100.00;100633.88;5060357;28;20045;-79
2023/06/28 04:48:22;;;;;;;40.53;37.00;;;;;;;21.85;100.00;100620.91;5059950;28;20061;-79
2023/06/28 04:50:51;;;;;;;42.92;39.10;;;;;;;22.49;100.00;100629.78;5059821;28;20103;-80
2023/06/28 04:53:18;;;;;;;38.10;34.83;;;;;;;22.31;100.00;100628.59;5058690;28;20044;-80
2023/06/28 04:55:46;;;;;;;39.97;36.70;;;;;;;22.16;100.00;100626.84;5061663;28;20052;-79
2023/06/28 04:58:13;;;;;;;36.67;33.70;;;;;;;22.12;100.00;100625.78;5064468;28;20144;-80
2023/06/28 05:00:40;;;;;;;33.92;30.88;;;;;;;22.34;100.00;100611.78;5057904;28;20131;-80
2023/06/28 05:03:07;;;;;;;37.45;34.13;;;;;;;22.33;100.00;100615.59;5064207;28;20048;-80
2023/06/28 05:05:34;;;;;;;36.90;33.85;;;;;;;22.42;100.00;100613.06;5060319;28;20044;-80
2023/06/28 05:08:03;;;;;;;38.08;35.08;;;;;;;22.24;100.00;100611.91;5061563;28;20044;-80
2023/06/28 05:10:30;;;;;;;37.80;34.53;;;;;;;22.50;100.00;100609.72;5061860;28;20055;-81
2023/06/28 05:12:57;;;;;;;37.45;34.55;;;;;;;22.18;100.00;100610.34;5062212;28;20063;-80
2023/06/28 05:15:24;;;;;;;36.97;33.78;;;;;;;22.34;100.00;100597.47;5060342;28;20059;-81
2023/06/28 05:17:51;;;;;;;34.85;32.05;;;;;;;22.46;100.00;100608.69;5059448;28;20070;-80
2023/06/28 05:20:18;;;;;;;35.03;32.35;;;;;;;22.40;100.00;100604.44;5059367;28;20049;-81
2023/06/28 05:22:49;;;;;;;34.15;31.33;;;;;;;22.40;100.00;100601.72;5054451;28;20049;-80
2023/06/28 05:25:17;;;;;;;35.05;32.00;;;;;;;22.70;100.00;100607.88;5061209;28;20049;-81
2023/06/28 05:27:44;;;;;;;31.10;28.60;;;;;;;22.60;100.00;100597.97;5061563;28;20052;-81
2023/06/28 05:30:12;;;;;;;31.90;29.02;;;;;;;22.38;100.00;100599.28;5061646;28;20436;-81
2023/06/28 05:32:39;;;;;;;32.03;29.13;;;;;;;22.49;100.00;100608.13;5065032;28;20048;-83
2023/06/28 05:35:06;;;;;;;30.50;28.05;;;;;;;22.76;100.00;100614.84;5059550;28;20106;-83
2023/06/28 05:37:33;;;;;;;31.38;28.70;;;;;;;23.01;100.00;100619.16;5058991;28;20442;-83
2023/06/28 05:40:00;;;;;;;32.95;30.13;;;;;;;22.93;100.00;100609.72;5061547;28;20052;-83
2023/06/28 05:42:28;;;;;;;33.45;30.80;;;;;;;23.00;100.00;100609.44;5057731;28;20048;-83
2023/06/28 05:44:55;;;;;;;33.67;30.23;;;;;;;22.89;100.00;100619.53;5061881;28;20052;-83
2023/06/28 05:47:22;;;;;;;30.92;28.20;;;;;;;22.76;100.00;100618.34;5056995;28;20505;-82
2023/06/28 05:49:49;;;;;;;33.55;30.77;;;;;;;22.83;100.00;100628.84;5060891;28;20056;-83
2023/06/28 05:52:16;;;;;;;31.73;28.92;;;;;;;22.67;100.00;100635.53;5058876;28;20498;-83
2023/06/28 05:54:43;;;;;;;33.42;30.55;;;;;;;23.07;100.00;100631.53;5061051;28;20527;-81
2023/06/28 05:57:10;;;;;;;32.35;29.65;;;;;;;23.19;100.00;100650.06;5065624;28;20048;-82
2023/06/28 05:59:39;;;;;;;32.08;29.48;;;;;;;22.83;100.00;100648.59;5059753;28;20060;-83
2023/06/28 06:02:06;;;;;;;32.67;30.02;;;;;;;22.99;100.00;100645.72;5062767;28;20049;-81
2023/06/28 06:04:33;;;;;;;32.33;29.63;;;;;;;23.23;100.00;100635.63;5055174;28;20053;-83
2023/06/28 06:06:59;;;;;;;33.25;30.55;;;;;;;23.38;100.00;100629.19;5060993;28;20044;-83
2023/06/28 06:09:29;;;;;;;31.48;28.77;;;;;;;23.25;100.00;100638.06;5057374;28;20049;-83
2023/06/28 06:11:56;;;;;;;31.42;28.83;;;;;;;23.26;100.00;100637.75;5057762;28;20061;-83
2023/06/28 06:14:23;;;;;;;30.75;28.27;;;;;;;23.48;100.00;100637.19;5063157;28;20048;-83
2023/06/28 06:16:53;;;;;;;30.50;28.00;;;;;;;23.46;100.00;100630.44;5058905;28;20059;-82
2023/06/28 06:19:20;;;;;;;30.90;28.63;;;;;;;23.30;100.00;100627.97;5059193;28;20157;-82
2023/06/28 06:21:47;;;;;;;29.27;26.98;;;;;;;23.51;100.00;100631.19;5060744;28;20053;-82
2023/06/28 06:24:14;;;;;;;30.52;27.98;;;;;;;24.10;100.00;100628.06;5057994;28;20057;-82
2023/06/28 06:26:41;;;;;;;30.92;28.48;;;;;;;23.83;100.00;100632.31;5059621;28;20049;-83
2023/06/28 06:29:08;;;;;;;29.60;27.30;;;;;;;23.73;100.00;100638.72;5055989;28;20489;-82
2023/06/28 06:31:35;;;;;;;28.98;26.67;;;;;;;23.97;100.00;100630.47;5058442;28;20495;-82
2023/06/28 06:34:03;;;;;;;30.45;28.15;;;;;;;23.79;100.00;100642.16;5049886;28;20430;-82
2023/06/28 06:36:30;;;;;;;28.33;26.33;;;;;;;23.60;100.00;100646.75;5059944;28;20128;-82
2023/06/28 06:38:58;;;;;;;28.08;26.00;;;;;;;24.30;100.00;100659.44;5049937;28;20075;-82
2023/06/28 06:41:25;;;;;;;30.65;28.38;;;;;;;24.45;100.00;100657.31;5059888;28;20055;-83
2023/06/28 06:43:51;;;;;;;28.75;26.48;;;;;;;25.25;100.00;100657.88;5056388;28;20438;-81
2023/06/28 06:46:20;;;;;;;27.00;25.00;;;;;;;24.51;100.00;100654.47;5058662;28;20053;-80
2023/06/28 06:48:46;;;;;;;26.77;24.67;;;;;;;24.65;100.00;100658.81;5058703;28;20053;-80
2023/06/28 06:51:16;;;;;;;28.38;25.80;;;;;;;24.55;100.00;100671.78;5058376;28;20426;-80
2023/06/28 06:53:42;;;;;;;26.23;23.98;;;;;;;24.84;100.00;100664.16;5056776;28;20052;-80
2023/06/28 06:56:09;;;;;;;27.05;24.95;;;;;;;24.54;100.00;100662.00;5057701;28;20048;-80
2023/06/28 06:58:36;;;;;;;26.17;24.17;;;;;;;24.18;100.00;100668.88;5061111;28;20561;-80
2023/06/28 07:01:03;;;;;;;28.15;25.83;;;;;;;24.47;100.00;100659.69;5062637;28;20049;-80
2023/06/28 07:03:31;;;;;;;26.55;24.40;;;;;;;24.86;100.00;100661.13;5058579;28;20059;-80
2023/06/28 07:05:59;;;;;;;26.88;24.45;;;;;;;24.65;100.00;100660.72;5058387;28;20072;-80
2023/06/28 07:08:27;;;;;;;27.05;24.55;;;;;;;24.69;100.00;100650.88;5058278;28;20049;-80
2023/06/28 07:10:54;;;;;;;27.42;24.83;;;;;;;25.24;100.00;100658.19;5058484;28;20497;-79
2023/06/28 07:13:21;;;;;;;29.35;26.55;;;;;;;24.75;100.00;100649.69;5059650;28;20159;-80
2023/06/28 07:15:48;;;;;;;26.83;24.63;;;;;;;24.24;100.00;100653.31;5063991;28;20048;-80
2023/06/28 07:18:15;;;;;;;28.33;25.73;;;;;;;24.73;100.00;100661.94;5062404;28;20040;-80
2023/06/28 07:20:42;;;;;;;28.60;25.88;;;;;;;24.58;100.00;100654.91;5053190;28;20049;-80
2023/06/28 07:23:09;;;;;;;27.65;25.08;;;;;;;24.84;100.00;100657.88;5058659;28;20076;-80
2023/06/28 07:25:38;;;;;;;28.50;26.00;;;;;;;24.56;100.00;100657.91;5063593;28;20640;-80
2023/06/28 07:28:05;;;;;;;27.92;25.05;;;;;;;25.19;100.00;100650.94;5063864;28;20048;-80
2023/06/28 07:30:52;;;;;;;27.73;25.00;;;;;;;25.59;100.00;100649.19;5063803;28;20541;-80
2023/06/28 07:33:19;;;;;;;26.17;23.90;;;;;;;25.47;100.00;100653.56;5058928;28;20099;-80
2023/06/28 07:35:46;;;;;;;26.30;23.83;;;;;;;25.00;100.00;100651.06;5065789;28;20437;-79
2023/06/28 07:38:13;;;;;;;26.15;24.10;;;;;;;25.13;100.00;100644.81;5061998;28;20051;-80
2023/06/28 07:40:41;;;;;;;28.73;25.92;;;;;;;25.16;100.00;100651.56;5061536;28;20056;-80
2023/06/28 07:43:08;;;;;;;28.65;26.17;;;;;;;25.27;100.00;100642.06;5061466;28;20052;-80
2023/06/28 07:45:35;;;;;;;28.88;25.95;;;;;;;25.53;100.00;100636.81;5063095;28;20445;-80
2023/06/28 07:48:02;;;;;;;27.75;25.23;;;;;;;25.23;100.00;100649.22;5060706;28;20045;-80
2023/06/28 07:50:29;;;;;;;27.45;24.90;;;;;;;25.40;100.00;100639.63;5059675;28;20510;-80
2023/06/28 07:52:56;;;;;;;27.88;25.58;;;;;;;25.78;100.00;100643.59;5061050;28;20591;-79
2023/06/28 07:55:23;;;;;;;28.48;25.88;;;;;;;25.24;100.00;100652.75;5062275;28;20049;-81
2023/06/28 07:57:51;;;;;;;28.88;26.10;;;;;;;25.83;100.00;100653.56;5057479;28;20052;-83
2023/06/28 08:00:18;;;;;;;26.90;24.90;;;;;;;25.92;100.00;100656.34;5061252;28;20059;-83
2023/06/28 08:02:45;;;;;;;27.50;25.02;;;;;;;25.15;100.00;100655.38;5060675;28;20048;-80
2023/06/28 08:05:12;;;;;;;26.33;24.00;;;;;;;25.63;100.00;100649.41;5060532;28;20061;-81
2023/06/28 08:07:39;;;;;;;28.10;25.42;;;;;;;25.16;100.00;100658.91;5061235;28;20064;-82
2023/06/28 08:10:06;;;;;;;27.17;24.85;;;;;;;25.08;100.00;100668.53;5058720;28;20049;-80
2023/06/28 08:12:34;;;;;;;26.50;24.40;;;;;;;24.99;100.00;100671.16;5065485;28;20491;-81
2023/06/28 08:15:02;;;;;;;26.63;24.20;;;;;;;25.01;100.00;100660.78;5054027;28;20435;-81
2023/06/28 08:17:29;;;;;;;27.13;24.63;;;;;;;25.48;100.00;100664.16;5063999;28;20063;-82
2023/06/28 08:19:56;;;;;;;25.73;23.45;;;;;;;25.59;100.00;100654.63;5060707;28;20049;-82
2023/06/28 08:22:23;;;;;;;24.65;22.90;;;;;;;25.67;100.00;100655.03;5056687;28;20067;-81
2023/06/28 08:24:50;;;;;;;25.65;23.48;;;;;;;25.55;100.00;100655.56;5057156;28;20056;-82
2023/06/28 08:27:16;;;;;;;25.42;23.40;;;;;;;25.94;100.00;100657.63;5065106;28;20438;-81
2023/06/28 08:29:43;;;;;;;26.83;24.65;;;;;;;26.25;100.00;100665.81;5059821;28;20064;-80
2023/06/28 08:32:12;;;;;;;26.30;23.85;;;;;;;26.08;100.00;100654.81;5055012;28;20060;-80
2023/06/28 08:34:39;;;;;;;25.65;23.58;;;;;;;26.36;100.00;100660.13;5059690;28;20052;-79
2023/06/28 08:37:07;;;;;;;25.48;23.45;;;;;;;26.49;100.00;100660.03;5061422;28;20131;-80
2023/06/28 08:39:36;;;;;;;24.15;22.20;;;;;;;25.89;100.00;100656.97;5060538;28;20429;-80
2023/06/28 08:42:03;;;;;;;23.45;21.15;;;;;;;26.23;100.00;100669.97;5059884;28;20166;-80
2023/06/28 08:44:32;;;;;;;25.70;23.35;;;;;;;26.55;100.00;100668.06;5051448;28;20148;-79
2023/06/28 08:47:00;;;;;;;24.75;22.55;;;;;;;25.98;100.00;100661.34;5051629;28;20055;-82
2023/06/28 08:49:29;;;;;;;23.70;21.73;;;;;;;26.53;100.00;100660.19;5061132;28;20049;-80
2023/06/28 08:51:56;;;;;;;24.33;21.98;;;;;;;26.56;100.00;100656.84;5062030;28;20510;-82
2023/06/28 08:54:27;;;;;;;23.42;21.45;;;;;;;26.37;100.00;100665.22;5059551;28;20051;-80
2023/06/28 08:56:57;;;;;;;24.02;22.25;;;;;;;26.57;100.00;100655.75;5054969;28;20045;-80
2023/06/28 08:59:24;;;;;;;26.42;24.02;;;;;;;26.79;100.00;100659.50;5060109;28;20080;-81
2023/06/28 09:01:55;;;;;;;25.75;23.38;;;;;;;26.55;100.00;100651.72;5061000;28;20048;-79
2023/06/28 09:04:23;;;;;;;26.15;23.88;;;;;;;26.59;100.00;100660.88;5062374;28;20580;-80
2023/06/28 09:06:52;;;;;;;24.58;22.70;;;;;;;26.16;100.00;100650.56;5058592;28;20422;-80
2023/06/28 09:09:20;;;;;;;26.42;24.33;;;;;;;26.24;100.00;100650.59;5055370;28;20049;-81
2023/06/28 09:11:47;;;;;;;24.98;22.73;;;;;;;26.45;100.00;100644.63;5062691;28;20166;-80
2023/06/28 09:14:14;;;;;;;25.60;23.38;;;;;;;26.60;100.00;100643.44;5055435;28;20481;-80
2023/06/28 09:16:41;;;;;;;23.77;22.08;;;;;;;26.72;100.00;100655.31;5061557;28;20056;-80
2023/06/28 09:19:08;;;;;;;24.08;22.17;;;;;;;26.68;100.00;100648.88;5060611;28;20133;-82
2023/06/28 09:21:35;;;;;;;24.95;22.83;;;;;;;26.69;100.00;100642.31;5060179;28;20071;-80
2023/06/28 09:24:04;;;;;;;25.48;23.17;;;;;;;26.33;100.00;100649.84;5057160;28;20419;-80
2023/06/28 09:26:34;;;;;;;24.48;22.10;;;;;;;26.88;100.00;100641.25;5061573;28;20051;-82
2023/06/28 09:29:07;;;;;;;24.33;22.13;;;;;;;26.79;100.00;100641.22;5061598;28;20048;-80
2023/06/28 09:31:39;;;;;;;24.25;22.25;;;;;;;26.42;100.00;100650.69;5061615;28;20200;-80
2023/06/28 09:34:09;;;;;;;24.10;22.05;;;;;;;26.82;100.00;100637.88;5059934;28;20048;-81
2023/06/28 09:36:37;;;;;;;24.15;22.10;;;;;;;26.97;100.00;100642.06;5058060;28;20044;-80
2023/06/28 09:39:07;;;;;;;26.67;24.42;;;;;;;27.36;100.00;100641.19;5061268;28;20080;-80
2023/06/28 09:41:41;;;;;;;26.70;24.38;;;;;;;27.85;100.00;100635.53;5050385;28;20085;-80
2023/06/28 09:44:10;;;;;;;27.20;24.63;;;;;;;26.97;100.00;100642.06;5059268;28;20071;-80
2023/06/28 09:46:43;;;;;;;24.00;22.20;;;;;;;27.13;100.00;100639.69;5063177;28;20147;-82
2023/06/28 09:49:21;;;;;;;29.15;27.08;;;;;;;27.14;100.00;100633.97;5061362;28;20619;-82
2023/06/28 09:51:56;;;;;;;27.80;25.33;;;;;;;27.25;100.00;100630.91;5060556;28;20496;-82
2023/06/28 09:54:28;;;;;;;28.23;25.88;;;;;;;27.26;100.00;100633.28;5052609;28;20487;-80
2023/06/28 09:56:55;;;;;;;28.80;26.00;;;;;;;27.22;100.00;100615.19;5059323;28;20442;-80
2023/06/28 09:59:24;;;;;;;28.90;26.92;;;;;;;27.24;100.00;100623.84;5059110;28;20049;-81
2023/06/28 10:01:53;;;;;;;26.85;25.05;;;;;;;26.80;100.00;100620.22;5060198;28;20049;-81
2023/06/28 10:04:20;;;;;;;28.05;25.58;;;;;;;27.75;100.00;100617.56;5060845;28;20060;-80
2023/06/28 10:06:51;;;;;;;25.45;23.65;;;;;;;27.42;100.00;100619.22;5061056;28;20052;-81
2023/06/28 10:09:22;;;;;;;26.35;24.52;;;;;;;27.56;100.00;100604.25;5051877;28;20055;-81
2023/06/28 10:11:51;;;;;;;27.38;25.17;;;;;;;27.58;100.00;100617.56;5058684;28;20136;-80
2023/06/28 10:14:20;;;;;;;28.70;26.60;;;;;;;27.85;100.00;100600.88;5052829;28;20045;-81
2023/06/28 10:16:48;;;;;;;27.95;25.95;;;;;;;27.40;100.00;100612.13;5055777;28;20122;-82
2023/06/28 10:19:15;;;;;;;28.27;26.08;;;;;;;28.09;100.00;100613.16;5055448;28;20049;-80
2023/06/28 10:21:42;;;;;;;30.00;27.13;;;;;;;28.19;100.00;100612.78;5059843;28;20044;-81
2023/06/28 10:24:10;;;;;;;27.65;25.67;;;;;;;28.00;100.00;100607.72;5059529;28;20116;-80
2023/06/28 10:26:38;;;;;;;31.13;28.77;;;;;;;28.35;100.00;100607.59;5056627;28;20059;-80
2023/06/28 10:29:06;;;;;;;32.15;29.52;;;;;;;28.83;100.00;100609.13;5057247;28;20047;-81
2023/06/28 10:31:33;;;;;;;28.88;26.77;;;;;;;28.21;100.00;100618.75;5060558;28;20061;-81
2023/06/28 10:34:00;;;;;;;28.35;26.27;;;;;;;27.51;100.00;100612.63;5058937;28;20079;-81
2023/06/28 10:36:28;;;;;;;29.17;27.20;;;;;;;28.24;100.00;100607.16;5058409;28;20449;-81
2023/06/28 10:38:55;;;;;;;28.45;26.20;;;;;;;28.01;100.00;100622.16;5063899;28;20045;-81
2023/06/28 10:41:24;;;;;;;28.52;26.63;;;;;;;28.65;100.00;100619.34;5060100;28;20052;-80
2023/06/28 10:44:03;;;;;;;27.73;25.63;;;;;;;27.43;100.00;100613.41;5060317;28;20080;-81
2023/06/28 10:46:32;;;;;;;26.20;24.10;;;;;;;27.48;100.00;100620.66;5060581;28;20049;-80
2023/06/28 10:49:00;;;;;;;25.38;23.27;;;;;;;27.45;100.00;100618.56;5056850;28;20068;-80
2023/06/28 10:51:28;;;;;;;23.52;21.65;;;;;;;28.18;100.00;100626.78;5062991;28;20132;-80
2023/06/28 10:54:07;;;;;;;24.75;22.95;;;;;;;27.67;100.00;100625.75;5061617;28;20076;-81
2023/06/28 10:56:37;;;;;;;24.95;22.95;;;;;;;27.49;100.00;100633.94;5064706;28;20053;-80
2023/06/28 10:59:07;;;;;;;25.77;23.77;;;;;;;27.68;100.00;100632.81;5062953;28;20064;-80
2023/06/28 11:01:40;;;;;;;29.65;27.52;;;;;;;27.33;100.00;100641.81;5062423;28;20097;-81
2023/06/28 11:04:17;;;;;;;25.67;23.52;;;;;;;27.23;100.00;100641.31;5064521;28;20055;-81